Data for 03/22/2010

Time Sea-Level Adjusted Pressure Absolute Pressure Temperature Relative Humidity Dew Point   
(mb) (inHg) (mb) (inHg) (C) (F) (%) (C) (F)
00:05 1013 29.91 842 24.86 6.7 44 47 -3.8 25.2
00:10 1013 29.91 842 24.86 6.7 44 47 -3.9 25
00:15 1013 29.91 842 24.86 6.7 44.1 46 -4 24.7
00:20 1013 29.91 842 24.86 6.7 44.1 46 -4 24.8
00:25 1013 29.91 842 24.86 6.7 44.1 46 -4.1 24.6
00:30 1013 29.91 842 24.86 6.8 44.2 46 -4 24.7
00:35 1013 29.91 842 24.86 6.7 44 47 -3.9 25.1
00:40 1013 29.91 842 24.86 6.6 43.8 46 -4.2 24.5
00:45 1013 29.91 842 24.86 6.5 43.7 47 -3.9 25
00:50 1013 29.91 842 24.86 6.4 43.4 47 -4.1 24.6
00:55 1013 29.91 842 24.86 6.3 43.3 47 -4.1 24.7
01:00 1013 29.91 842 24.86 6.2 43.2 48 -4.1 24.7
01:05 1013 29.91 842 24.86 6.1 43 48 -4.1 24.5
01:10 1013 29.91 842 24.86 6.2 43.1 46 -4.6 23.8
01:15 1013 29.91 842 24.86 6.4 43.4 45 -4.6 23.7
01:20 1013 29.91 842 24.86 6.4 43.6 46 -4.4 24.1
01:25 1013 29.91 842 24.86 6.2 43.2 47 -4.1 24.6
01:30 1013 29.91 842 24.86 6.1 42.9 48 -4.1 24.7
01:35 1013 29.91 842 24.86 6.1 42.9 47 -4.3 24.3
01:40 1013 29.91 842 24.86 6.2 43.1 48 -4 24.7
01:45 1013 29.91 842 24.86 6.2 43.1 47 -4.4 24
01:50 1013 29.91 842 24.86 6.2 43.2 46 -4.5 23.9
01:55 1013 29.91 842 24.86 6.3 43.4 46 -4.4 24.1
02:00 1012 29.88 842 24.86 6.3 43.4 45 -4.6 23.7
02:05 1013 29.91 842 24.86 6.4 43.5 45 -4.6 23.6
02:10 1013 29.91 842 24.86 6.4 43.6 46 -4.5 24
02:15 1013 29.91 842 24.86 6.4 43.5 47 -4 24.8
02:20 1013 29.91 842 24.86 6.2 43.2 48 -3.9 24.9
02:25 1013 29.91 842 24.86 6.1 42.9 49 -3.8 25.2
02:30 1013 29.91 842 24.86 5.8 42.5 50 -3.7 25.3
02:35 1013 29.91 842 24.86 5.8 42.4 51 -3.7 25.4
02:40 1013 29.91 842 24.86 5.7 42.3 51 -3.6 25.5
02:45 1013 29.91 842 24.86 5.7 42.3 51 -3.5 25.7
02:50 1013 29.91 842 24.86 5.5 42 52 -3.4 25.8
02:55 1013 29.91 842 24.86 5.4 41.8 52 -3.6 25.6
03:00 1013 29.91 842 24.86 5.6 42.1 52 -3.6 25.6
03:05 1013 29.91 842 24.86 5.8 42.5 51 -3.5 25.8
03:10 1013 29.91 842 24.86 5.8 42.5 53 -3.1 26.4
03:15 1013 29.91 842 24.86 5.6 42.1 54 -2.9 26.7
03:20 1012 29.88 842 24.86 5.5 41.8 56 -2.6 27.3
03:25 1012 29.88 842 24.86 5.2 41.3 57 -2.6 27.4
03:30 1012 29.88 842 24.86 5.1 41.2 57 -2.7 27.2
03:35 1012 29.88 842 24.86 5.1 41.2 57 -2.6 27.3
03:40 1012 29.88 842 24.86 5.2 41.3 57 -2.5 27.4
03:45 1012 29.88 842 24.86 5.1 41.2 58 -2.5 27.6
03:50 1012 29.88 842 24.86 5.1 41.1 60 -2.2 28.1
03:55 1012 29.88 842 24.86 5.1 41.1 58 -2.4 27.7
04:00 1012 29.88 842 24.86 5 41 59 -2.3 27.8
04:05 1012 29.88 842 24.86 5 41 59 -2.4 27.7
04:10 1012 29.88 842 24.86 4.9 40.9 59 -2.3 27.9
04:15 1012 29.88 842 24.86 4.9 40.9 60 -2.3 27.9
04:20 1012 29.88 842 24.86 4.7 40.4 64 -1.5 29.2
04:25 1012 29.88 842 24.86 4.4 39.8 63 -2.1 28.1
04:30 1012 29.88 841 24.83 4 39.2 66 -1.8 28.8
04:35 1012 29.88 841 24.83 3.9 39 63 -2.5 27.6
04:40 1012 29.88 841 24.83 4.3 39.7 62 -2.4 27.7
04:45 1012 29.88 841 24.83 4.5 40 62 -2.2 28.1
04:50 1012 29.88 841 24.83 4.3 39.8 63 -2.1 28.2
04:55 1012 29.88 841 24.83 4.2 39.6 64 -1.9 28.6
05:00 1012 29.88 842 24.86 3.9 39.1 65 -2.1 28.2
05:05 1012 29.88 842 24.86 4 39.2 64 -2.2 28.1
05:10 1012 29.88 842 24.86 4.1 39.4 62 -2.5 27.5
05:15 1012 29.88 841 24.83 4.4 39.9 62 -2.4 27.7
05:20 1012 29.88 842 24.86 4.4 40 60 -2.6 27.4
05:25 1012 29.88 842 24.86 4.6 40.3 60 -2.5 27.5
05:30 1012 29.88 842 24.86 4.6 40.3 61 -2.3 27.8
05:35 1012 29.88 842 24.86 4.6 40.2 61 -2.4 27.7
05:40 1013 29.91 842 24.86 4.5 40.1 62 -2.1 28.3
05:45 1013 29.91 842 24.86 4.1 39.4 66 -1.6 29.2
05:50 1013 29.91 842 24.86 3.8 38.9 69 -1.4 29.4
05:55 1013 29.91 842 24.86 3.7 38.7 70 -1.2 29.8
06:00 1013 29.91 842 24.86 3.6 38.4 72 -1.1 30.1
06:05 1013 29.91 842 24.86 3.5 38.2 76 -0.4 31.3
06:10 1013 29.91 842 24.86 3.3 37.9 78 -0.3 31.5
06:15 1013 29.91 842 24.86 3.1 37.5 80 -0.1 31.9
06:20 1013 29.91 842 24.86 2.9 37.3 79 -0.4 31.3
06:25 1013 29.91 842 24.86 3.1 37.6 79 -0.2 31.6
06:30 1013 29.91 842 24.86 3.1 37.6 79 -0.1 31.8
06:35 1013 29.91 843 24.89 3.1 37.6 79 -0.1 31.8
06:40 1013 29.91 843 24.89 3.1 37.5 79 -0.2 31.6
06:45 1014 29.94 843 24.89 2.8 37.1 81 -0.1 31.8
06:50 1014 29.94 843 24.89 2.6 36.7 81 -0.3 31.4
06:55 1014 29.94 843 24.89 2.5 36.5 83 -0.2 31.7
07:00 1014 29.94 843 24.89 2.5 36.5 85 0.3 32.5
07:05 1014 29.94 843 24.89 2.4 36.3 86 0.2 32.3
07:10 1014 29.94 843 24.89 2.3 36.2 86 0.2 32.4
07:15 1014 29.94 843 24.89 2.4 36.3 86 0.3 32.5
07:20 1014 29.94 843 24.89 2.3 36.1 87 0.3 32.5
07:25 1014 29.94 843 24.89 2 35.7 89 0.4 32.6
07:30 1014 29.94 843 24.89 1.7 35.1 90 0.2 32.3
07:35 1014 29.94 843 24.89 1.4 34.5 90 -0.1 31.8
07:40 1014 29.94 843 24.89 1.3 34.3 91 -0.1 31.8
07:45 1014 29.94 843 24.89 1.2 34.1 91 -0.1 31.8
07:50 1014 29.94 843 24.89 1.1 34 91 -0.2 31.7
07:55 1014 29.94 843 24.89 1.1 33.9 91 -0.2 31.7
08:00 1014 29.94 843 24.89 1 33.8 91 -0.3 31.5
08:05 1014 29.94 843 24.89 1 33.8 91 -0.3 31.4
08:10 1014 29.94 843 24.89 1.1 34 90 -0.3 31.4
08:15 1014 29.94 843 24.89 1 33.8 91 -0.3 31.4
08:20 1014 29.94 843 24.89 0.8 33.4 92 -0.3 31.4
08:25 1014 29.94 843 24.89 0.6 33.1 93 -0.3 31.4
08:30 1014 29.94 843 24.89 0.6 33.1 94 -0.3 31.5
08:35 1014 29.94 843 24.89 0.7 33.2 93 -0.3 31.5
08:40 1014 29.94 843 24.89 0.7 33.3 94 -0.2 31.6
08:45 1014 29.94 844 24.92 0.9 33.6 91 -0.4 31.4
08:50 1014 29.94 844 24.92 1 33.7 92 -0.2 31.6
08:55 1014 29.94 844 24.92 1.1 33.9 92 -0.1 31.9
09:00 1014 29.94 844 24.92 1.2 34.2 92 0 32.1
09:05 1015 29.97 844 24.92 1.2 34.2 92 0.1 32.2
09:10 1015 29.97 844 24.92 1.3 34.3 92 0.1 32.2
09:15 1015 29.97 844 24.92 1.2 34.1 92 0 32.1
09:20 1015 29.97 844 24.92 1 33.8 93 -0 32
09:25 1015 29.97 844 24.92 0.9 33.6 93 -0.1 31.9
09:30 1015 29.97 844 24.92 0.8 33.4 94 -0.1 31.8
09:35 1015 29.97 844 24.92 0.7 33.2 95 -0.1 31.8
09:40 1015 29.97 844 24.92 0.8 33.4 94 -0 32
09:45 1015 29.97 844 24.92 1 33.7 94 0.1 32.2
09:50 1015 29.97 844 24.92 1.2 34.2 94 0.3 32.5
09:55 1015 29.97 844 24.92 1.5 34.6 93 0.4 32.7
10:00 1015 29.97 844 24.92 1.7 35.1 91 0.4 32.7
10:05 1015 29.97 844 24.92 1.8 35.3 90 0.4 32.7
10:10 1015 29.97 844 24.92 1.9 35.4 89 0.2 32.4
10:15 1015 29.97 844 24.92 1.6 34.9 91 0.3 32.5
10:20 1015 29.97 844 24.92 1.3 34.4 91 0.1 32.1
10:25 1015 29.97 844 24.92 1.4 34.5 91 0.2 32.3
10:30 1015 29.97 844 24.92 1.6 34.9 90 0.1 32.2
10:35 1015 29.97 844 24.92 2 35.6 85 -0.2 31.6
10:40 1015 29.97 844 24.92 2.5 36.4 84 0 32.1
10:45 1015 29.97 844 24.92 2.7 36.9 80 -0.4 31.2
10:50 1015 29.97 844 24.92 3.3 37.9 82 0.5 32.8
10:55 1015 29.97 844 24.92 3.6 38.6 77 -0 32
11:00 1015 29.97 844 24.92 3.5 38.3 78 0.1 32.2
11:05 1015 29.97 844 24.92 3.7 38.7 78 0.2 32.3
11:10 1015 29.97 844 24.92 4.2 39.5 75 0.1 32.2
11:15 1015 29.97 844 24.92 4.4 40 74 0.2 32.4
11:20 1015 29.97 844 24.92 4.4 40 74 0.3 32.5
11:25 1015 29.97 844 24.92 5 41.1 71 0.1 32.2
11:30 1015 29.97 844 24.92 4.7 40.5 72 0.1 32.3
11:35 1015 29.97 844 24.92 4.1 39.4 74 -0.2 31.7
11:40 1015 29.97 844 24.92 5.3 41.6 69 0 32
11:45 1015 29.97 844 24.92 5.8 42.4 68 0.3 32.6
11:50 1015 29.97 844 24.92 5.5 42 67 -0.1 31.9
11:55 1015 29.97 844 24.92 6 42.8 64 -0.3 31.5
12:00 1015 29.97 844 24.92 5.7 42.3 60 -1.5 29.2
12:05 1015 29.97 844 24.92 5.5 41.9 60 -1.5 29.3
12:10 1015 29.97 844 24.92 4.9 40.9 63 -1.5 29.3
12:15 1015 29.97 844 24.92 4.9 40.9 70 -0 32
12:20 1015 29.97 844 24.92 4.8 40.7 73 0.4 32.6
12:25 1015 29.97 844 24.92 4 39.3 81 1.1 33.9
12:30 1015 29.97 844 24.92 4.5 40.2 75 0.5 32.9
12:35 1015 29.97 844 24.92 5.3 41.6 65 -0.6 30.9
12:40 1015 29.97 844 24.92 4.4 40 69 -0.7 30.8
12:45 1015 29.97 844 24.92 3.8 38.8 68 -1.6 29.2
12:50 1015 29.97 844 24.92 3 37.3 80 -0.2 31.7
12:55 1015 29.97 844 24.92 2.1 35.8 78 -1.3 29.7
13:00 1015 29.97 844 24.92 2.3 36.1 77 -1.3 29.7
13:05 1015 29.97 844 24.92 2.9 37.2 76 -1 30.2
13:10 1015 29.97 844 24.92 3.1 37.5 65 -2.8 27
13:15 1015 29.97 844 24.92 3.4 38.1 56 -4.6 23.7
13:20 1015 29.97 844 24.92 3.8 38.8 53 -4.9 23.2
13:25 1015 29.97 844 24.92 4.2 39.6 53 -4.5 23.9
13:30 1015 29.97 844 24.92 4.6 40.3 52 -4.3 24.3
13:35 1015 29.97 844 24.92 4.9 40.8 50 -4.6 23.6
13:40 1015 29.97 844 24.92 3.9 38.9 64 -2.3 27.9
13:45 1015 29.97 844 24.92 3.5 38.4 65 -2.5 27.6
13:50 1015 29.97 844 24.92 3.2 37.8 69 -1.9 28.6
13:55 1015 29.97 844 24.92 3.5 38.4 63 -2.9 26.7
14:00 1015 29.97 844 24.92 4.3 39.8 66 -1.5 29.3
14:05 1015 29.97 844 24.92 5.8 42.5 54 -2.7 27.1
14:10 1015 29.97 844 24.92 6.3 43.4 54 -2.2 28
14:15 1015 29.97 844 24.92 5.5 41.9 61 -1.5 29.3
14:20 1015 29.97 844 24.92 5.3 41.5 60 -2 28.5
14:25 1015 29.97 844 24.92 4.8 40.7 57 -2.9 26.8
14:30 1015 29.97 844 24.92 4.5 40.2 58 -3 26.6
14:35 1015 29.97 844 24.92 4.8 40.6 56 -3.3 26
14:40 1015 29.97 844 24.92 5 41 55 -3.3 26
14:45 1015 29.97 844 24.92 5.2 41.4 55 -3.1 26.4
14:50 1015 29.97 844 24.92 4.2 39.5 59 -3.2 26.2
14:55 1015 29.97 844 24.92 4 39.1 59 -3.3 26
15:00 1015 29.97 844 24.92 4.3 39.7 59 -2.9 26.7
15:05 1015 29.97 844 24.92 5.4 41.7 54 -3.1 26.4
15:10 1015 29.97 844 24.92 6.5 43.7 52 -2.7 27.1
15:15 1015 29.97 844 24.92 7.2 44.9 53 -1.7 28.9
15:20 1015 29.97 844 24.92 5.9 42.6 65 -0.2 31.7
15:25 1014 29.94 844 24.92 5.4 41.7 61 -1.6 29.2
15:30 1014 29.94 844 24.92 6.4 43.6 52 -2.8 27
15:35 1015 29.97 844 24.92 6.4 43.5 52 -2.7 27.2
15:40 1014 29.94 844 24.92 6.2 43.1 55 -2.3 27.9
15:45 1015 29.97 844 24.92 6 42.9 54 -2.6 27.4
15:50 1015 29.97 844 24.92 6.5 43.7 51 -2.8 27
15:55 1015 29.97 844 24.92 6.1 43 58 -1.5 29.3
16:00 1015 29.97 844 24.92 3.6 38.5 75 -0.4 31.3
16:05 1015 29.97 844 24.92 1.7 35.1 84 -0.6 30.8
16:10 1015 29.97 844 24.92 1 33.8 91 -0.3 31.4
16:15 1015 29.97 844 24.92 0.4 32.8 94 -0.5 31.2
16:20 1015 29.97 844 24.92 0.3 32.5 95 -0.5 31.1
16:25 1015 29.97 844 24.92 0.3 32.6 94 -0.5 31.2
16:30 1015 29.97 845 24.95 0.5 32.9 94 -0.4 31.3
16:35 1015 29.97 845 24.95 0.5 33 94 -0.3 31.4
16:40 1015 29.97 845 24.95 0.5 32.9 94 -0.4 31.3
16:45 1015 29.97 845 24.95 0.5 33 95 -0.2 31.7
16:50 1016 30 845 24.95 0.8 33.5 94 -0.1 31.8
16:55 1016 30 845 24.95 0.8 33.4 93 -0.3 31.5
17:00 1016 30 845 24.95 0.8 33.4 93 -0.3 31.5
17:05 1016 30 845 24.95 1.1 34 91 -0.2 31.7
17:10 1016 30 845 24.95 1.5 34.7 90 0 32
17:15 1016 30 845 24.95 1.8 35.3 86 -0.2 31.6
17:20 1016 30 845 24.95 2 35.5 84 -0.5 31
17:25 1016 30 845 24.95 2.2 35.9 82 -0.6 31
17:30 1016 30 845 24.95 2.1 35.8 82 -0.7 30.8
17:35 1015 29.97 845 24.95 1.9 35.4 82 -0.9 30.4
17:40 1015 29.97 845 24.95 1.9 35.4 81 -1.1 30
17:45 1016 30 845 24.95 1.9 35.4 83 -0.7 30.7
17:50 1016 30 845 24.95 1.8 35.2 82 -1 30.2
17:55 1016 30 845 24.95 1.9 35.4 82 -0.9 30.4
18:00 1016 30 845 24.95 2 35.6 81 -1 30.3
18:05 1016 30 845 24.95 2.2 35.9 80 -1 30.3
18:10 1016 30 845 24.95 2.3 36.1 75 -1.6 29.1
18:15 1016 30 845 24.95 2 35.7 75 -1.9 28.6
18:20 1016 30 845 24.95 2.1 35.8 75 -1.8 28.7
18:25 1016 30 845 24.95 2.4 36.3 73 -2 28.4
18:30 1016 30 845 24.95 2.6 36.7 71 -2.1 28.1
18:35 1016 30 845 24.95 2.4 36.3 71 -2.3 27.9
18:40 1016 30 845 24.95 2.3 36.1 74 -1.9 28.6
18:45 1016 30 845 24.95 2.1 35.9 73 -2.1 28.2
18:50 1016 30 845 24.95 2.2 36 70 -2.6 27.3
18:55 1016 30 845 24.95 2.6 36.7 68 -2.7 27.2
19:00 1016 30 845 24.95 2.4 36.4 71 -2.3 27.9
19:05 1016 30 845 24.95 2.3 36.1 70 -2.7 27.1
19:10 1016 30 845 24.95 2.5 36.5 68 -2.9 26.8
19:15 1016 30 845 24.95 2.8 37 68 -2.5 27.4
19:20 1016 30 845 24.95 2.8 37 68 -2.5 27.5
19:25 1016 30 845 24.95 2.6 36.7 66 -3.1 26.5
19:30 1016 30 845 24.95 2.6 36.7 69 -2.6 27.4
19:35 1016 30 846 24.98 2.4 36.3 70 -2.6 27.3
19:40 1016 30 846 24.98 2.3 36.1 70 -2.7 27.2
19:45 1016 30 846 24.98 2.3 36.2 70 -2.7 27.2
19:50 1016 30 846 24.98 2.5 36.4 67 -3.1 26.4
19:55 1016 30 846 24.98 2.2 35.9 67 -3.2 26.2
20:00 1017 30.03 846 24.98 1.9 35.3 71 -2.9 26.8
20:05 1017 30.03 846 24.98 1.7 35 71 -3 26.6
20:10 1017 30.03 846 24.98 1.8 35.3 69 -3.3 26
20:15 1017 30.03 846 24.98 1.8 35.3 68 -3.3 26
20:20 1017 30.03 846 24.98 1.8 35.3 69 -3.1 26.3
20:25 1017 30.03 846 24.98 1.8 35.2 70 -3.1 26.4
20:30 1017 30.03 846 24.98 1.6 34.9 71 -3.1 26.4
20:35 1017 30.03 846 24.98 1.5 34.7 72 -3 26.6
20:40 1017 30.03 846 24.98 1.5 34.8 70 -3.4 25.8
20:45 1017 30.03 846 24.98 1.7 35.1 69 -3.3 26.1
20:50 1017 30.03 846 24.98 1.8 35.3 70 -3 26.6
20:55 1017 30.03 846 24.98 1.7 35 71 -3.1 26.4
21:00 1017 30.03 847 25.01 1.6 34.8 72 -3 26.6
21:05 1017 30.03 847 25.01 1.6 34.9 72 -2.9 26.8
21:10 1017 30.03 847 25.01 1.8 35.3 68 -3.5 25.7
21:15 1017 30.03 847 25.01 2.1 35.7 68 -3.2 26.2
21:20 1018 30.06 847 25.01 2.1 35.8 66 -3.6 25.6
21:25 1018 30.06 847 25.01 2 35.6 69 -3 26.6
21:30 1018 30.06 847 25.01 1.9 35.4 71 -2.8 26.9
21:35 1018 30.06 847 25.01 1.7 35 71 -3 26.6
21:40 1018 30.06 847 25.01 1.6 34.9 72 -3 26.6
21:45 1018 30.06 847 25.01 1.6 34.9 74 -2.5 27.6
21:50 1018 30.06 847 25.01 1.4 34.5 74 -2.8 27
21:55 1018 30.06 847 25.01 1.4 34.5 73 -2.9 26.8
22:00 1018 30.06 847 25.01 1.4 34.5 74 -2.8 26.9
22:05 1018 30.06 847 25.01 1.3 34.4 75 -2.7 27.2
22:10 1018 30.06 847 25.01 1.1 34 76 -2.6 27.4
22:15 1018 30.06 847 25.01 1.1 33.9 77 -2.5 27.5
22:20 1018 30.06 847 25.01 1.2 34.1 75 -2.7 27.1
22:25 1018 30.06 847 25.01 1.3 34.3 75 -2.6 27.3
22:30 1018 30.06 847 25.01 1.4 34.6 75 -2.6 27.4
22:35 1018 30.06 847 25.01 1.4 34.6 74 -2.6 27.3
22:40 1018 30.06 847 25.01 1.5 34.7 74 -2.7 27.1
22:45 1018 30.06 847 25.01 1.5 34.7 74 -2.6 27.3
22:50 1018 30.06 847 25.01 1.5 34.7 74 -2.7 27.1
22:55 1018 30.06 847 25.01 1.5 34.7 72 -3 26.7
23:00 1018 30.06 847 25.01 1.5 34.7 72 -3 26.5
23:05 1018 30.06 848 25.04 1.3 34.3 73 -3 26.6
23:10 1018 30.06 848 25.04 1 33.8 75 -2.9 26.7
23:15 1018 30.06 848 25.04 0.6 33 75 -3.3 26.1
23:20 1018 30.06 848 25.04 0.5 32.9 77 -3 26.5
23:25 1018 30.06 848 25.04 0.3 32.6 79 -2.9 26.7
23:30 1018 30.06 848 25.04 0.1 32.2 80 -3 26.6
23:35 1019 30.09 848 25.04 0.1 32.2 79 -3.2 26.3
23:40 1019 30.09 848 25.04 0.2 32.4 78 -3.3 26.1
23:45 1019 30.09 848 25.04 0.3 32.6 77 -3.2 26.3
23:50 1019 30.09 848 25.04 0.3 32.5 78 -3.1 26.3
23:55 1019 30.09 848 25.04 0.3 32.5 78 -3.1 26.4
24:00 1019 30.09 848 25.04 0.3 32.5 78 -3.2 26.2